Flight Track Log - Related Links

Times and Time Zones

All times are in EDT time to prevent confusion due to time zone crossing. See the KAP29 flight status page for this flight to view local times or setup timezone preferences in your user account.

Time Position Orientation Groundspeed Altitude Reporting Facility
EDT Latitude Longitude Course Direction KTS MPH feet Rate Location/Type
Sat 05:55:58 PM 42.3667 -71.0167 216° Southwest 98 113 400  Level KA90
Sat 05:56:34 PM 42.3500 -71.0333 216° Southwest 106 122 1,100 875 Climbing KA90
Sat 05:57:34 PM 42.3500 -71.0667 270° West 109 125 1,800 650 Climbing KA90
Sat 05:58:34 PM 42.3500 -71.1167 270° West 106 122 2,400 619 Climbing KA90
Sat 05:59:40 PM 42.3833 -71.1333 340° North 117 135 3,100 619 Climbing KA90
Sat 06:00:40 PM 42.4167 -71.1500 340° North 121 139 3,700 579 Climbing KA90
Sat 06:01:34 PM 42.4500 -71.1500 360° North 120 138 4,200 667 Climbing KA90
Sat 06:02:28 PM 42.4833 -71.1667 340° North 120 138 4,900 632 Climbing KA90
Sat 06:03:28 PM 42.5000 -71.1833 324° Northwest 118 136 5,400 579 Climbing KA90
Sat 06:04:22 PM 42.5333 -71.2000 340° North 123 142 6,000 550 Climbing KA90
Sat 06:05:28 PM 42.5667 -71.2167 340° North 124 143 6,500 476 Climbing KA90
Sat 06:06:28 PM 42.6000 -71.2333 340° North 123 142 7,000 524 Climbing KA90
Sat 06:07:34 PM 42.6333 -71.2500 340° North 123 142 7,600 524 Climbing KA90
Sat 06:08:34 PM 42.6667 -71.2667 340° North 125 144 8,100 300 Climbing KA90
Sat 06:09:34 PM 42.7000 -71.2833 340° North 141 162 8,200 48 Climbing KA90
Sat 06:10:40 PM 42.7500 -71.3000 346° North 159 183 8,200 -48 Level KA90
Sat 06:11:40 PM 42.8000 -71.3333 334° Northwest 164 189 8,100 -50 Descending KA90
Sat 06:12:40 PM 42.8333 -71.3500 340° North 167 192 8,100  Level KA90
Sat 06:13:46 PM 42.8833 -71.4000 324° Northwest 163 188 8,100  Level KA90
Sat 06:14:40 PM 42.9000 -71.4333 304° West 157 181 8,100  Level KA90
Sat 06:15:34 PM 42.9333 -71.4667 324° Northwest 156 180 8,100  Level KA90
Sat 06:16:34 PM 42.9667 -71.5167 312° West 159 183 8,100  Level KA90
Sat 06:17:34 PM 42.9833 -71.5667 295° West 157 181 8,100  Level KA90
Sat 06:18:46 PM 43.0333 -71.6167 324° Northwest 158 182 8,100  Level KA90
Sat 06:19:46 PM 43.0500 -71.6667 295° West 157 181 8,100  Level KA90
Sat 06:20:40 PM 43.0833 -71.7000 324° Northwest 155 178 8,100  Level KA90
Sat 06:21:35 PM 43.1111 -71.7378 315° West 171 197 8,100  Level Boston Center
Sat 06:22:35 PM 43.1361 -71.7772 311° West 159 183 8,100  Level Boston Center
Sat 06:23:35 PM 43.1697 -71.8253 314° West 159 183 8,100  Level Boston Center
Sat 06:24:35 PM 43.1972 -71.8647 314° West 159 183 8,100  Level Boston Center
Sat 06:25:35 PM 43.2286 -71.9100 314° West 159 183 8,100  Level Boston Center
Sat 06:26:35 PM 43.2558 -71.9497 313° West 159 183 8,100  Level Boston Center
Sat 06:27:35 PM 43.2872 -71.9953 313° West 159 183 8,100  Level Boston Center
Sat 06:28:35 PM 43.3125 -72.0350 311° West 159 183 8,100  Level Boston Center
Sat 06:29:35 PM 43.3461 -72.0803 316° Northwest 159 183 8,100  Level Boston Center
Sat 06:30:35 PM 43.3733 -72.1231 311° West 159 183 8,100  Level Boston Center
Sat 06:31:35 PM 43.4047 -72.1686 313° West 159 183 8,100  Level Boston Center
Sat 06:32:35 PM 43.4339 -72.2142 311° West 159 183 8,100  Level Boston Center
Sat 06:33:35 PM 43.4653 -72.2569 315° West 159 183 8,100  Level Boston Center
Sat 06:34:35 PM 43.4964 -72.2997 315° West 159 183 8,100 -50 Level Boston Center
Sat 06:35:35 PM 43.5258 -72.3456 312° West 159 183 8,000 -50 Descending Boston Center
Sat 06:36:35 PM 43.5550 -72.3914 311° West 159 183 8,000  Level Boston Center
Sat 06:37:35 PM 43.5861 -72.4372 313° West 159 183 8,000  Level Boston Center
Sat 06:38:35 PM 43.6153 -72.4803 313° West 159 183 8,000  Level Boston Center
Sat 06:39:35 PM 43.6444 -72.5289 310° West 159 183 8,000  Level Boston Center
Sat 06:40:35 PM 43.6778 -72.5750 315° West 159 183 8,000  Level Boston Center
Sat 06:41:35 PM 43.7089 -72.6211 313° West 159 183 8,000  Level Boston Center
Sat 06:42:35 PM 43.7361 -72.6528 320° Northwest 154 177 8,000  Level Boston Center
Sat 06:43:35 PM 43.7672 -72.7075 308° West 159 183 8,000  Level Boston Center
Sat 06:44:35 PM 43.8003 -72.7536 315° West 159 183 8,000  Level Boston Center
Sat 06:45:35 PM 43.8275 -72.7997 309° West 159 183 8,000  Level Boston Center
Sat 06:46:35 PM 43.8586 -72.8433 315° West 159 183 8,000  Level Boston Center
Sat 06:47:35 PM 43.8875 -72.8867 313° West 159 183 8,000  Level Boston Center
Sat 06:48:35 PM 43.9164 -72.9331 311° West 159 183 8,000  Level Boston Center
Sat 06:49:35 PM 43.9475 -72.9764 315° West 159 183 8,000  Level Boston Center
Sat 06:50:35 PM 43.9764 -73.0228 311° West 159 183 8,000  Level Boston Center
Sat 06:51:35 PM 44.0056 -73.0664 313° West 159 183 8,000  Level Boston Center
Sat 06:52:35 PM 44.0364 -73.1131 313° West 159 183 8,000  Level Boston Center
Sat 06:53:35 PM 44.0653 -73.1594 311° West 159 183 8,000  Level Boston Center
Sat 06:54:35 PM 44.0942 -73.2003 315° West 159 183 8,000  Level Boston Center
Sat 06:55:35 PM 44.1250 -73.2469 313° West 159 183 8,000  Level Boston Center
Sat 06:56:35 PM 44.1561 -73.2936 313° West 159 183 8,000  Level Boston Center
Sat 06:57:35 PM 44.1869 -73.3406 312° West 159 183 8,000  Level Boston Center
Sat 06:58:35 PM 44.2178 -73.3903 311° West 159 183 8,000  Level Boston Center
Sat 06:59:35 PM 44.2508 -73.4428 311° West 171 197 8,000  Level Boston Center
Sat 07:00:35 PM 44.2817 -73.4839 316° Northwest 171 197 8,000  Level Boston Center
Sat 07:01:35 PM 44.3103 -73.5308 310° West 171 197 8,000  Level Boston Center
Sat 07:02:35 PM 44.3453 -73.5839 313° West 171 197 8,000 -150 Level Boston Center
Sat 07:03:35 PM 44.3739 -73.6308 310° West 165 190 7,700 -250 Descending Boston Center
Sat 07:04:35 PM 44.4047 -73.6781 312° West 165 190 7,500 -100 Descending Boston Center
Sat 07:05:35 PM 44.4356 -73.7222 314° West 160 184 7,500  Level Boston Center
Sat 07:06:35 PM 44.4600 -73.7636 310° West 160 184 7,500  Level Boston Center
Sat 07:07:35 PM 44.4906 -73.8106 312° West 160 184 7,500  Level Boston Center
Sat 07:08:35 PM 44.5214 -73.8550 314° West 160 184 7,500 -100 Level Boston Center
Sat 07:09:35 PM 44.5436 -73.9022 303° West 160 184 7,300 -250 Descending Boston Center
Sat 07:10:35 PM 44.5575 -73.9581 289° West 155 178 7,000 -600 Descending Boston Center
Sat 07:11:35 PM 44.5653 -74.0164 281° West 149 171 6,100 -800 Descending Boston Center
Sat 07:12:35 PM 44.5394 -74.0594 230° Southwest 135 155 5,400 -700 Descending Boston Center
Sat 07:13:35 PM 44.5058 -74.0875 211° Southwest 146 168 4,700 -900 Descending Boston Center
Sat 07:14:35 PM 44.4742 -74.1217 218° Southwest 152 175 3,600 -900 Descending Boston Center
Sat 07:15:35 PM 44.4467 -74.1469 213° Southwest 152 175 2,900 -650 Descending Boston Center
Sat 07:16:35 PM 44.4169 -74.1753 214° Southwest 139 160 2,300 -600 Descending Boston Center
Sat 07:18:00 PM 44.3833 -74.2000 216° Southwest  Level FlightAware Approximate
Sat 07:25:00 PM 44.3853 -74.2062 216° Southwest  Level Estimated
Sat 07:26:00 PM 44.3833 -74.2000 216° Southwest  Level FlightAware Approximate
Sat 07:27:00 PM 44.3853 -74.2062 216° Southwest  Level Estimated
Sat 07:28:00 PM 44.3833 -74.2000 216° Southwest  Level FlightAware Approximate
Sat 07:29:00 PM 44.3853 -74.2062 216° Southwest  Level Estimated
Sat 07:30:00 PM 44.3833 -74.2000 216° Southwest  Level FlightAware Approximate

Login

Don't have an account? Register now (free) for customized features, flight alerts, and more!